createdAt,value
2023-04-24T00:00:46.405Z,87.30
2023-04-24T00:03:15.097Z,87.30
2023-04-24T00:05:47.857Z,87.40
2023-04-24T00:08:15.702Z,87.50
2023-04-24T00:10:43.647Z,87.50
2023-04-24T00:13:16.755Z,87.60
2023-04-24T00:15:44.625Z,87.50
2023-04-24T00:18:17.146Z,87.30
2023-04-24T00:20:45.578Z,87.30
2023-04-24T00:23:17.601Z,87.30
2023-04-24T00:25:45.532Z,87.70
2023-04-24T00:28:16.397Z,88.00
2023-04-24T00:30:44.273Z,87.80
2023-04-24T00:33:20.211Z,88.40
2023-04-24T00:35:51.296Z,88.20
2023-04-24T00:38:47.168Z,88.10
2023-04-24T00:41:21.864Z,88.20
2023-04-24T00:43:49.945Z,88.10
2023-04-24T00:46:18.778Z,88.00
2023-04-24T00:48:46.730Z,87.90
2023-04-24T00:51:16.875Z,88.00
2023-04-24T00:53:48.895Z,87.50
2023-04-24T00:56:25.253Z,87.70
2023-04-24T00:58:53.318Z,87.80
2023-04-24T01:01:22.770Z,87.70
2023-04-24T01:03:53.093Z,87.60
2023-04-24T01:06:22.311Z,87.80
2023-04-24T01:08:52.073Z,88.00
2023-04-24T01:11:20.662Z,87.80
2023-04-24T01:13:55.024Z,87.80
2023-04-24T01:16:28.695Z,87.80
2023-04-24T01:19:09.459Z,88.20
2023-04-24T01:21:39.296Z,88.20
2023-04-24T01:24:11.175Z,88.00
2023-04-24T01:26:45.530Z,88.00
2023-04-24T01:29:16.540Z,87.60
2023-04-24T01:31:45.507Z,87.90
2023-04-24T01:34:13.781Z,87.90
2023-04-24T01:36:43.508Z,87.90
2023-04-24T01:39:16.630Z,88.00
2023-04-24T01:41:46.736Z,88.00
2023-04-24T01:44:14.651Z,87.90
2023-04-24T01:46:43.115Z,88.00
2023-04-24T01:49:11.101Z,88.10
2023-04-24T01:51:45.541Z,87.90
2023-04-24T01:54:17.753Z,87.70
2023-04-24T01:56:45.990Z,86.50
2023-04-24T01:59:14.268Z,87.60
2023-04-24T02:01:54.001Z,87.50
2023-04-24T02:04:24.773Z,87.70
2023-04-24T02:07:14.415Z,88.00
2023-04-24T02:09:43.947Z,88.30
2023-04-24T02:12:14.832Z,88.60
2023-04-24T02:14:43.283Z,86.80
2023-04-24T02:17:16.432Z,85.50
2023-04-24T02:19:53.243Z,88.10
2023-04-24T02:22:30.752Z,88.10
2023-04-24T02:25:13.568Z,88.10
2023-04-24T02:27:44.192Z,88.10
2023-04-24T02:30:18.260Z,87.80
2023-04-24T02:32:48.914Z,87.80
2023-04-24T02:35:17.022Z,88.10
2023-04-24T02:37:44.912Z,87.50
2023-04-24T02:40:20.065Z,88.10
2023-04-24T02:42:50.339Z,88.00
2023-04-24T02:45:18.316Z,88.20
2023-04-24T02:47:48.647Z,87.80
2023-04-24T02:50:16.574Z,87.40
2023-04-24T02:52:44.819Z,85.10
2023-04-24T02:55:12.856Z,88.00
2023-04-24T02:57:45.075Z,88.10
2023-04-24T03:00:14.369Z,87.90
2023-04-24T03:02:42.357Z,88.10
2023-04-24T03:05:12.874Z,87.70
2023-04-24T03:07:40.719Z,88.00
2023-04-24T03:10:14.407Z,88.10
2023-04-24T03:12:46.618Z,88.20
2023-04-24T03:15:14.492Z,88.20
2023-04-24T03:17:42.444Z,87.90
2023-04-24T03:20:13.247Z,88.30
2023-04-24T03:22:41.119Z,88.00
2023-04-24T03:25:12.034Z,87.80
2023-04-24T03:27:44.636Z,87.90
2023-04-24T03:30:14.202Z,87.80
2023-04-24T03:32:42.099Z,88.00
2023-04-24T03:35:10.627Z,87.70
2023-04-24T03:37:41.444Z,87.90
2023-04-24T03:40:10.762Z,88.10
2023-04-24T03:42:39.434Z,88.40
2023-04-24T03:45:12.938Z,88.40
2023-04-24T03:47:40.896Z,88.50
2023-04-24T03:50:14.305Z,88.40
2023-04-24T03:52:42.187Z,88.50
2023-04-24T03:55:20.708Z,88.40
2023-04-24T03:57:48.573Z,88.60
2023-04-24T04:00:19.510Z,88.30
2023-04-24T04:02:47.465Z,88.10
2023-04-24T04:05:15.535Z,88.10
2023-04-24T04:07:43.503Z,88.20
2023-04-24T04:10:14.217Z,88.10
2023-04-24T04:12:42.055Z,88.50
2023-04-24T04:15:10.350Z,88.30
2023-04-24T04:17:39.963Z,88.20
2023-04-24T04:20:11.649Z,88.20
2023-04-24T04:22:44.526Z,88.10
2023-04-24T04:25:14.220Z,87.90
2023-04-24T04:27:48.724Z,87.90
2023-04-24T04:30:17.089Z,87.50
2023-04-24T04:32:46.386Z,87.20
2023-04-24T04:35:14.289Z,87.20
2023-04-24T04:37:42.141Z,86.90
2023-04-24T04:40:15.895Z,86.80
2023-04-24T04:42:46.790Z,87.10
2023-04-24T04:45:18.636Z,86.50
2023-04-24T04:47:48.083Z,86.80
2023-04-24T04:50:20.422Z,86.60
2023-04-24T04:52:48.297Z,86.70
2023-04-24T04:55:23.494Z,86.50
2023-04-24T04:57:51.346Z,86.20
2023-04-24T05:00:19.381Z,86.20
2023-04-24T05:02:51.747Z,86.80
2023-04-24T05:05:32.030Z,86.30
2023-04-24T05:08:02.084Z,85.90
2023-04-24T05:10:32.969Z,85.40
2023-04-24T05:13:03.236Z,85.90
2023-04-24T05:15:31.220Z,85.50
2023-04-24T05:18:00.546Z,85.80
2023-04-24T05:20:30.536Z,86.20
2023-04-24T05:22:58.381Z,85.30
2023-04-24T05:25:26.249Z,85.50
2023-04-24T05:27:57.024Z,84.90
2023-04-24T05:30:24.974Z,85.10
2023-04-24T05:32:52.862Z,85.40
2023-04-24T05:35:22.309Z,85.50
2023-04-24T05:37:56.109Z,85.60
2023-04-24T05:40:26.179Z,85.60
2023-04-24T05:42:54.005Z,85.80
2023-04-24T05:45:24.006Z,85.90
2023-04-24T05:48:00.798Z,86.40
2023-04-24T05:50:30.055Z,86.30
2023-04-24T05:53:02.824Z,86.20
2023-04-24T05:55:32.260Z,86.20
2023-04-24T05:58:00.236Z,86.10
2023-04-24T06:00:29.608Z,85.90
2023-04-24T06:02:57.770Z,85.60
2023-04-24T06:05:26.210Z,85.90
2023-04-24T06:07:55.812Z,86.20
2023-04-24T06:10:23.982Z,86.20
2023-04-24T06:12:57.148Z,83.80
2023-04-24T06:15:25.003Z,84.10
2023-04-24T06:17:53.021Z,85.40
2023-04-24T06:20:21.498Z,85.70
2023-04-24T06:22:49.383Z,86.10
2023-04-24T06:25:18.942Z,86.40
2023-04-24T06:27:47.038Z,86.10
2023-04-24T06:30:17.959Z,86.50
2023-04-24T06:32:45.985Z,86.40
2023-04-24T06:35:17.241Z,86.20
2023-04-24T06:37:51.263Z,86.50
2023-04-24T06:40:23.397Z,86.50
2023-04-24T06:42:54.055Z,86.70
2023-04-24T06:45:27.215Z,86.60
2023-04-24T06:47:58.352Z,86.60
2023-04-24T06:50:26.614Z,86.70
2023-04-24T06:52:54.468Z,86.60
2023-04-24T06:55:23.686Z,86.90
2023-04-24T06:57:57.702Z,87.30
2023-04-24T07:00:25.783Z,87.20
2023-04-24T07:02:59.654Z,87.00
2023-04-24T07:05:27.632Z,87.10
2023-04-24T07:07:55.536Z,86.60
2023-04-24T07:10:25.362Z,86.60
2023-04-24T07:12:53.227Z,86.90
2023-04-24T07:15:24.256Z,87.00
2023-04-24T07:17:55.185Z,87.00
2023-04-24T07:20:23.187Z,86.90
2023-04-24T07:22:57.222Z,87.00
2023-04-24T07:25:26.457Z,87.10
2023-04-24T07:28:00.471Z,86.80
2023-04-24T07:30:29.794Z,87.10
2023-04-24T07:33:00.438Z,87.10
2023-04-24T07:35:28.786Z,86.80
2023-04-24T07:37:56.791Z,86.80
2023-04-24T07:40:26.212Z,85.20
2023-04-24T07:43:01.530Z,85.90
2023-04-24T07:45:29.886Z,86.20
2023-04-24T07:48:00.935Z,86.50
2023-04-24T07:50:31.881Z,86.50
2023-04-24T07:52:59.862Z,86.70
2023-04-24T07:55:29.108Z,86.20
2023-04-24T07:57:56.985Z,86.60
2023-04-24T08:00:27.925Z,87.00
2023-04-24T08:03:05.001Z,87.30
2023-04-24T08:05:40.997Z,87.20
2023-04-24T08:08:11.898Z,87.10
2023-04-24T08:10:48.751Z,87.10
2023-04-24T08:13:19.435Z,87.90
2023-04-24T08:15:53.190Z,86.50
2023-04-24T08:18:21.147Z,86.00
2023-04-24T08:20:49.033Z,90.50
2023-04-24T08:23:16.959Z,91.20
2023-04-24T08:25:46.189Z,92.60
2023-04-24T08:28:20.913Z,92.90
2023-04-24T08:30:49.062Z,92.80
2023-04-24T08:33:16.959Z,91.40
2023-04-24T08:35:44.836Z,93.30
2023-04-24T08:38:12.685Z,93.90
2023-04-24T08:40:40.727Z,90.60
2023-04-24T08:43:10.213Z,89.40
2023-04-24T08:45:39.422Z,91.10
2023-04-24T08:48:16.457Z,92.20
2023-04-24T08:50:58.768Z,92.90
2023-04-24T08:53:29.802Z,93.00
2023-04-24T08:56:04.380Z,93.30
2023-04-24T08:58:33.834Z,93.30
2023-04-24T09:01:06.566Z,92.70
2023-04-24T09:03:36.668Z,93.70
2023-04-24T09:06:13.887Z,93.70
2023-04-24T09:08:45.700Z,93.90
2023-04-24T09:11:14.038Z,94.00
2023-04-24T09:13:44.688Z,94.00
2023-04-24T09:16:16.390Z,94.00
2023-04-24T09:18:44.334Z,94.00
2023-04-24T09:21:18.286Z,94.40
2023-04-24T09:23:46.407Z,94.70
2023-04-24T09:26:21.229Z,94.80
2023-04-24T09:28:50.426Z,95.10
2023-04-24T09:31:23.033Z,95.40
2023-04-24T09:33:58.540Z,94.40
2023-04-24T09:36:33.999Z,94.50
2023-04-24T09:39:02.869Z,94.50
2023-04-24T09:41:37.571Z,96.40
2023-04-24T09:44:18.500Z,95.30
2023-04-24T09:46:57.189Z,95.70
2023-04-24T09:49:34.189Z,94.20
2023-04-24T09:52:05.681Z,96.80
2023-04-24T09:54:37.646Z,96.80
2023-04-24T09:57:10.204Z,97.10
2023-04-24T09:59:48.040Z,94.50
2023-04-24T10:02:22.443Z,97.00
2023-04-24T10:04:57.590Z,97.20
2023-04-24T10:07:28.874Z,95.90
2023-04-24T10:09:57.106Z,97.30
2023-04-24T10:12:26.144Z,97.30
2023-04-24T10:14:56.116Z,97.30
2023-04-24T10:17:52.994Z,96.90
2023-04-24T10:20:22.994Z,96.90
2023-04-24T10:22:54.758Z,96.90
2023-04-24T10:25:30.661Z,94.90
2023-04-24T10:28:02.784Z,96.00
2023-04-24T10:30:35.894Z,94.90
2023-04-24T10:33:04.885Z,96.00
2023-04-24T10:35:34.533Z,96.40
2023-04-24T10:38:14.002Z,96.90
2023-04-24T10:40:48.130Z,98.10
2023-04-24T10:43:23.568Z,94.10
2023-04-24T10:46:06.949Z,97.70
2023-04-24T10:48:45.743Z,97.70
2023-04-24T10:51:23.891Z,98.10
2023-04-24T10:54:15.445Z,97.90
2023-04-24T10:56:43.377Z,97.90
2023-04-24T10:59:12.269Z,97.90
2023-04-24T11:01:55.149Z,97.90
2023-04-24T11:04:32.237Z,94.00
2023-04-24T11:07:00.468Z,94.20
2023-04-24T11:09:37.295Z,97.00
2023-04-24T11:12:10.194Z,96.50
2023-04-24T11:15:03.992Z,94.60
2023-04-24T11:17:34.614Z,97.40
2023-04-24T11:20:15.382Z,96.90
2023-04-24T11:22:47.235Z,97.30
2023-04-24T11:25:17.991Z,96.40
2023-04-24T11:27:47.290Z,97.90
2023-04-24T11:30:20.556Z,97.10
2023-04-24T11:32:53.405Z,96.30
2023-04-24T11:35:25.695Z,97.10
2023-04-24T11:40:37.276Z,96.80
2023-04-24T11:43:07.614Z,96.20
2023-04-24T11:45:38.682Z,97.50
2023-04-24T11:48:07.925Z,95.10
2023-04-24T11:50:36.135Z,97.80
2023-04-24T11:53:04.128Z,98.30
2023-04-24T11:55:32.059Z,97.20
2023-04-24T11:58:01.935Z,98.00
2023-04-24T12:00:40.762Z,96.50
2023-04-24T12:03:16.431Z,97.20
2023-04-24T12:05:50.363Z,97.20
2023-04-24T12:08:30.254Z,96.30
2023-04-24T12:10:58.537Z,97.70
2023-04-24T12:13:29.327Z,98.20
2023-04-24T12:15:59.008Z,96.20
2023-04-24T12:18:28.525Z,97.10
2023-04-24T12:21:01.354Z,96.20
2023-04-24T12:23:38.732Z,97.80
2023-04-24T12:26:07.327Z,96.80
2023-04-24T12:28:39.214Z,96.20
2023-04-24T12:31:09.302Z,92.90
2023-04-24T12:33:41.542Z,96.80
2023-04-24T12:36:13.166Z,95.80
2023-04-24T12:38:47.419Z,97.30
2023-04-24T12:41:24.001Z,95.10
2023-04-24T12:43:56.313Z,93.60
2023-04-24T12:46:24.553Z,97.20
2023-04-24T12:48:56.631Z,96.90
2023-04-24T12:51:26.034Z,96.00
2023-04-24T12:53:56.727Z,96.90
2023-04-24T12:56:27.721Z,96.50
2023-04-24T12:58:55.588Z,94.70
2023-04-24T13:01:29.577Z,96.40
2023-04-24T13:03:58.921Z,96.70
2023-04-24T13:06:27.368Z,95.30
2023-04-24T13:08:55.791Z,97.20
2023-04-24T13:11:23.925Z,97.20
2023-04-24T13:13:53.182Z,94.20
2023-04-24T13:16:24.073Z,96.50
2023-04-24T13:18:52.004Z,97.20
2023-04-24T13:21:21.219Z,96.30
2023-04-24T13:23:49.116Z,96.70
2023-04-24T13:26:17.032Z,94.50
2023-04-24T13:28:44.893Z,95.60
2023-04-24T13:31:15.800Z,92.90
2023-04-24T13:33:44.078Z,95.60
2023-04-24T13:36:12.302Z,92.80
2023-04-24T13:38:41.549Z,95.60
2023-04-24T13:41:15.275Z,96.00
2023-04-24T13:43:44.487Z,95.90
2023-04-24T13:46:12.589Z,95.60
2023-04-24T13:48:47.985Z,95.30
2023-04-24T13:51:15.853Z,94.60
2023-04-24T13:53:47.330Z,92.50
2023-04-24T13:56:15.394Z,95.40
2023-04-24T13:58:49.806Z,94.40
2023-04-24T14:01:20.132Z,95.30
2023-04-24T14:03:48.593Z,95.00
2023-04-24T14:06:16.792Z,94.20
2023-04-24T14:08:46.037Z,94.10
2023-04-24T14:11:14.112Z,93.70
2023-04-24T14:13:43.779Z,90.70
2023-04-24T14:16:17.568Z,94.80
2023-04-24T14:18:54.199Z,95.60
2023-04-24T14:21:22.088Z,95.20
2023-04-24T14:23:53.553Z,94.10
2023-04-24T14:26:21.806Z,91.80
2023-04-24T14:28:58.013Z,91.80
2023-04-24T14:31:31.840Z,93.30
2023-04-24T14:34:02.154Z,94.10
2023-04-24T14:36:30.072Z,94.30
2023-04-24T14:39:04.331Z,93.00
2023-04-24T14:41:32.464Z,92.70
2023-04-24T14:44:03.342Z,92.70
2023-04-24T14:46:32.016Z,93.20
2023-04-24T14:49:02.976Z,93.50
2023-04-24T14:51:31.288Z,90.40
2023-04-24T14:54:03.926Z,90.20
2023-04-24T14:56:41.729Z,90.00
2023-04-24T14:59:12.757Z,89.10
2023-04-24T15:01:43.123Z,87.30
2023-04-24T15:04:16.490Z,88.80
2023-04-24T15:06:44.450Z,90.40
2023-04-24T15:09:13.664Z,90.90
2023-04-24T15:11:44.579Z,91.30
2023-04-24T15:14:12.739Z,91.10
2023-04-24T15:16:41.085Z,91.50
2023-04-24T15:19:16.369Z,90.30
2023-04-24T15:21:47.084Z,92.00
2023-04-24T15:24:19.418Z,92.00
2023-04-24T15:26:57.418Z,92.00
2023-04-24T15:29:30.688Z,91.10
2023-04-24T15:31:58.598Z,91.10
2023-04-24T15:34:28.933Z,91.70
2023-04-24T15:36:59.876Z,91.20
2023-04-24T15:39:32.209Z,92.70
2023-04-24T15:42:03.468Z,92.80
2023-04-24T15:44:31.339Z,92.60
2023-04-24T15:47:03.234Z,91.10
2023-04-24T15:49:34.253Z,92.70
2023-04-24T15:52:14.932Z,93.00
2023-04-24T15:54:44.296Z,93.00
2023-04-24T15:57:14.601Z,91.10
2023-04-24T15:59:42.570Z,92.90
2023-04-24T16:02:11.817Z,92.60
2023-04-24T16:04:45.225Z,90.50
2023-04-24T16:07:20.472Z,92.80
2023-04-24T16:09:49.719Z,92.80
2023-04-24T16:12:17.625Z,92.20
2023-04-24T16:14:45.511Z,91.70
2023-04-24T16:17:13.425Z,92.70
2023-04-24T16:19:41.274Z,92.60
2023-04-24T16:22:23.068Z,91.00
2023-04-24T16:24:52.308Z,92.30
2023-04-24T16:27:26.626Z,92.50
2023-04-24T16:29:55.945Z,92.40
2023-04-24T16:32:30.936Z,90.30
2023-04-24T16:35:04.399Z,92.40
2023-04-24T16:37:36.709Z,91.80
2023-04-24T16:40:12.858Z,92.70
2023-04-24T16:42:41.223Z,91.20
2023-04-24T16:45:17.813Z,92.00
2023-04-24T16:47:45.782Z,92.10
2023-04-24T16:50:13.707Z,92.30
2023-04-24T16:52:41.988Z,89.90
2023-04-24T16:55:11.556Z,92.20
2023-04-24T16:57:42.467Z,92.60
2023-04-24T17:00:25.714Z,92.10
2023-04-24T17:02:59.859Z,90.60
2023-04-24T17:05:37.341Z,92.40
2023-04-24T17:08:10.797Z,93.00
2023-04-24T17:10:41.106Z,86.60
2023-04-24T17:13:09.489Z,93.00
2023-04-24T17:15:51.473Z,91.40
2023-04-24T17:18:22.829Z,92.90
2023-04-24T17:20:51.537Z,86.40
2023-04-24T17:23:22.365Z,87.90
2023-04-24T17:25:54.104Z,87.90
2023-04-24T17:28:27.867Z,89.40
2023-04-24T17:30:58.896Z,87.10
2023-04-24T17:33:42.043Z,89.90
2023-04-24T17:36:13.099Z,89.80
2023-04-24T17:38:40.981Z,89.50
2023-04-24T17:41:16.508Z,87.90
2023-04-24T17:43:47.165Z,90.40
2023-04-24T17:46:15.160Z,88.80
2023-04-24T17:48:43.116Z,91.10
2023-04-24T17:51:14.126Z,86.40
2023-04-24T17:53:42.020Z,86.80
2023-04-24T17:56:14.035Z,88.80
2023-04-24T17:58:44.843Z,85.90
2023-04-24T18:01:18.893Z,90.50
2023-04-24T18:03:46.979Z,90.20
2023-04-24T18:06:18.756Z,91.50
2023-04-24T18:08:46.806Z,91.80
2023-04-24T18:11:25.775Z,91.80
2023-04-24T18:13:56.785Z,91.80
2023-04-24T18:16:25.836Z,91.60
2023-04-24T18:18:56.921Z,91.40
2023-04-24T18:21:25.072Z,84.90
2023-04-24T18:24:00.183Z,91.30
2023-04-24T18:26:29.584Z,89.50
2023-04-24T18:29:03.570Z,88.80
2023-04-24T18:31:32.471Z,88.30
2023-04-24T18:34:00.484Z,90.70
2023-04-24T18:36:31.230Z,90.20
2023-04-24T18:38:59.108Z,91.50
2023-04-24T18:41:38.667Z,91.80
2023-04-24T18:44:12.406Z,85.20
2023-04-24T18:46:41.511Z,91.20
2023-04-24T18:49:17.366Z,91.40
2023-04-24T18:51:54.007Z,91.90
2023-04-24T18:54:22.584Z,90.50
2023-04-24T18:57:36.208Z,87.50
2023-04-24T19:00:19.873Z,91.80
2023-04-24T19:02:50.624Z,90.80
2023-04-24T19:05:21.569Z,86.20
2023-04-24T19:08:12.921Z,91.60
2023-04-24T19:10:40.851Z,90.40
2023-04-24T19:13:21.158Z,90.50
2023-04-24T19:15:54.023Z,90.50
2023-04-24T19:18:31.226Z,86.20
2023-04-24T19:21:02.289Z,86.10
2023-04-24T19:23:36.375Z,91.50
2023-04-24T19:26:04.542Z,91.60
2023-04-24T19:28:34.014Z,90.70
2023-04-24T19:31:07.943Z,86.30
2023-04-24T19:33:41.707Z,88.20
2023-04-24T19:36:12.783Z,88.10
2023-04-24T19:38:40.793Z,90.10
2023-04-24T19:41:12.243Z,92.30
2023-04-24T19:43:41.460Z,92.10
2023-04-24T19:46:09.453Z,91.60
2023-04-24T19:48:37.972Z,88.90
2023-04-24T19:51:08.620Z,87.20
2023-04-24T19:53:36.511Z,90.60
2023-04-24T19:56:04.430Z,92.20
2023-04-24T19:58:32.366Z,88.40
2023-04-24T20:01:01.825Z,90.90
2023-04-24T20:03:38.538Z,89.80
2023-04-24T20:06:06.715Z,90.10
2023-04-24T20:08:38.790Z,86.70
2023-04-24T20:11:07.037Z,85.30
2023-04-24T20:13:34.972Z,85.30
2023-04-24T20:16:15.262Z,90.70
2023-04-24T20:18:44.677Z,87.10
2023-04-24T20:21:15.725Z,87.40
2023-04-24T20:23:43.612Z,89.70
2023-04-24T20:26:14.461Z,93.30
2023-04-24T20:28:42.306Z,90.00
2023-04-24T20:31:10.308Z,90.80
2023-04-24T20:33:41.470Z,89.70
2023-04-24T20:36:10.258Z,94.10
2023-04-24T20:38:41.252Z,93.90
2023-04-24T20:41:10.284Z,91.60
2023-04-24T20:43:41.240Z,91.30
2023-04-24T20:46:09.165Z,93.40
2023-04-24T20:48:47.385Z,93.00
2023-04-24T20:51:19.475Z,93.30
2023-04-24T20:53:52.677Z,92.20
2023-04-24T20:56:23.390Z,92.30
2023-04-24T20:58:56.793Z,89.40
2023-04-24T21:01:25.134Z,92.50
2023-04-24T21:04:00.605Z,91.10
2023-04-24T21:06:28.508Z,92.80
2023-04-24T21:08:56.439Z,91.40
2023-04-24T21:11:24.327Z,90.70
2023-04-24T21:13:52.192Z,90.00
2023-04-24T21:16:30.204Z,88.20
2023-04-24T21:19:02.391Z,88.90
2023-04-24T21:21:30.675Z,89.70
2023-04-24T21:23:58.538Z,92.60
2023-04-24T21:26:26.432Z,90.00
2023-04-24T21:28:54.629Z,91.30
2023-04-24T21:31:22.561Z,92.80
2023-04-24T21:33:50.931Z,88.50
2023-04-24T21:36:23.113Z,91.20
2023-04-24T21:38:53.118Z,90.60
2023-04-24T21:41:21.008Z,90.30
2023-04-24T21:43:55.069Z,91.60
2023-04-24T21:46:26.204Z,90.80
2023-04-24T21:48:54.117Z,90.70
2023-04-24T21:51:26.919Z,92.80
2023-04-24T21:53:54.775Z,92.70
2023-04-24T21:56:25.694Z,93.30
2023-04-24T21:58:54.302Z,92.00
2023-04-24T22:01:28.365Z,86.30
2023-04-24T22:03:56.363Z,88.70
2023-04-24T22:06:36.148Z,90.40
2023-04-24T22:09:04.524Z,93.00
2023-04-24T22:11:38.755Z,92.60
2023-04-24T22:14:07.178Z,91.30
2023-04-24T22:16:38.768Z,88.00
2023-04-24T22:19:09.082Z,87.10
2023-04-24T22:21:38.324Z,92.90
2023-04-24T22:24:06.742Z,89.90
2023-04-24T22:26:34.915Z,90.30
2023-04-24T22:29:04.520Z,89.70
2023-04-24T22:31:38.283Z,90.00
2023-04-24T22:34:06.235Z,91.70
2023-04-24T22:36:36.831Z,92.70
2023-04-24T22:39:06.196Z,93.20
2023-04-24T22:41:34.127Z,93.50
2023-04-24T22:44:14.145Z,92.60
2023-04-24T22:46:48.181Z,90.90
2023-04-24T22:49:16.113Z,90.20
2023-04-24T22:51:48.090Z,92.40
2023-04-24T22:54:20.411Z,92.30
2023-04-24T22:56:50.593Z,91.40
2023-04-24T22:59:18.653Z,92.50
2023-04-24T23:01:52.574Z,92.50
2023-04-24T23:04:27.066Z,91.70
2023-04-24T23:06:57.719Z,87.30
2023-04-24T23:09:26.934Z,90.50
2023-04-24T23:11:54.855Z,89.30
2023-04-24T23:14:24.525Z,90.30
2023-04-24T23:16:52.448Z,87.50
2023-04-24T23:19:20.457Z,88.90
2023-04-24T23:21:48.352Z,93.60
2023-04-24T23:24:19.313Z,94.00
2023-04-24T23:26:54.685Z,93.90
2023-04-24T23:29:23.096Z,93.60
2023-04-24T23:31:54.020Z,92.30
2023-04-24T23:34:21.994Z,90.80
2023-04-24T23:36:52.346Z,90.90
2023-04-24T23:39:20.219Z,92.10
2023-04-24T23:41:49.345Z,91.60
2023-04-24T23:44:18.720Z,91.90
2023-04-24T23:46:46.595Z,92.50
2023-04-24T23:49:14.758Z,91.90
2023-04-24T23:51:48.443Z,92.40
2023-04-24T23:54:22.505Z,91.30
2023-04-24T23:56:51.625Z,91.90
2023-04-24T23:59:23.645Z,92.70
